sensor_id;sensor_type;location;lat;lon;timestamp;pressure;altitude;pressure_sealevel;temperature;humidity
12868;BME280;33517;49.866;8.320;2023-12-20T00:00:36;100490.63;;;6.13;100.00
12868;BME280;33517;49.866;8.320;2023-12-20T00:03:28;100494.47;;;6.09;100.00
12868;BME280;33517;49.866;8.320;2023-12-20T00:06:20;100491.31;;;6.15;100.00
12868;BME280;33517;49.866;8.320;2023-12-20T00:09:12;100494.19;;;6.03;100.00
12868;BME280;33517;49.866;8.320;2023-12-20T00:12:04;100501.59;;;6.07;100.00
12868;BME280;33517;49.866;8.320;2023-12-20T00:14:56;100506.00;;;6.07;100.00
12868;BME280;33517;49.866;8.320;2023-12-20T00:17:49;100489.94;;;6.11;100.00
12868;BME280;33517;49.866;8.320;2023-12-20T00:20:42;100483.09;;;6.20;100.00
12868;BME280;33517;49.866;8.320;2023-12-20T00:23:33;100487.03;;;6.14;100.00
12868;BME280;33517;49.866;8.320;2023-12-20T00:26:25;100477.00;;;6.10;100.00
12868;BME280;33517;49.866;8.320;2023-12-20T00:29:18;100488.16;;;6.12;100.00
12868;BME280;33517;49.866;8.320;2023-12-20T00:32:10;100484.69;;;6.11;100.00
12868;BME280;33517;49.866;8.320;2023-12-20T00:35:04;100476.03;;;6.11;100.00
12868;BME280;33517;49.866;8.320;2023-12-20T00:37:58;100464.91;;;6.18;100.00
12868;BME280;33517;49.866;8.320;2023-12-20T00:40:50;100463.00;;;6.30;100.00
12868;BME280;33517;49.866;8.320;2023-12-20T00:43:42;100448.69;;;6.34;100.00
12868;BME280;33517;49.866;8.320;2023-12-20T00:46:35;100447.19;;;6.31;100.00
12868;BME280;33517;49.866;8.320;2023-12-20T00:49:27;100453.09;;;6.24;100.00
12868;BME280;33517;49.866;8.320;2023-12-20T00:52:20;100459.56;;;6.29;100.00
12868;BME280;33517;49.866;8.320;2023-12-20T00:55:13;100449.81;;;6.31;100.00
12868;BME280;33517;49.866;8.320;2023-12-20T00:58:05;100445.13;;;6.35;100.00
12868;BME280;33517;49.866;8.320;2023-12-20T01:00:57;100448.00;;;6.41;100.00
12868;BME280;33517;49.866;8.320;2023-12-20T01:03:49;100453.22;;;6.41;100.00
12868;BME280;33517;49.866;8.320;2023-12-20T01:06:41;100452.53;;;6.39;100.00
12868;BME280;33517;49.866;8.320;2023-12-20T01:09:35;100453.91;;;6.34;100.00
12868;BME280;33517;49.866;8.320;2023-12-20T01:12:27;100451.84;;;6.28;100.00
12868;BME280;33517;49.866;8.320;2023-12-20T01:15:18;100449.94;;;6.30;100.00
12868;BME280;33517;49.866;8.320;2023-12-20T01:18:10;100442.53;;;6.35;100.00
12868;BME280;33517;49.866;8.320;2023-12-20T01:21:02;100447.88;;;6.33;100.00
12868;BME280;33517;49.866;8.320;2023-12-20T01:23:54;100445.38;;;6.32;100.00
12868;BME280;33517;49.866;8.320;2023-12-20T01:26:48;100449.13;;;6.29;100.00
12868;BME280;33517;49.866;8.320;2023-12-20T01:29:39;100457.38;;;6.25;100.00
12868;BME280;33517;49.866;8.320;2023-12-20T01:32:31;100450.34;;;6.25;100.00
12868;BME280;33517;49.866;8.320;2023-12-20T01:35:23;100450.63;;;6.32;100.00
12868;BME280;33517;49.866;8.320;2023-12-20T01:38:15;100446.91;;;6.34;100.00
12868;BME280;33517;49.866;8.320;2023-12-20T01:41:09;100448.00;;;6.32;100.00
12868;BME280;33517;49.866;8.320;2023-12-20T01:44:02;100445.69;;;6.38;100.00
12868;BME280;33517;49.866;8.320;2023-12-20T01:46:54;100446.78;;;6.36;100.00
12868;BME280;33517;49.866;8.320;2023-12-20T01:49:46;100452.00;;;6.45;100.00
12868;BME280;33517;49.866;8.320;2023-12-20T01:52:38;100450.22;;;6.46;100.00
12868;BME280;33517;49.866;8.320;2023-12-20T01:55:32;100451.59;;;6.50;100.00
12868;BME280;33517;49.866;8.320;2023-12-20T01:58:26;100459.28;;;6.51;100.00
12868;BME280;33517;49.866;8.320;2023-12-20T02:01:19;100453.13;;;6.53;100.00
12868;BME280;33517;49.866;8.320;2023-12-20T02:04:11;100463.00;;;6.59;100.00
12868;BME280;33517;49.866;8.320;2023-12-20T02:07:03;100462.19;;;6.58;100.00
12868;BME280;33517;49.866;8.320;2023-12-20T02:09:55;100463.97;;;6.58;100.00
12868;BME280;33517;49.866;8.320;2023-12-20T02:12:48;100468.22;;;6.59;100.00
12868;BME280;33517;49.866;8.320;2023-12-20T02:15:40;100466.19;;;6.62;100.00
12868;BME280;33517;49.866;8.320;2023-12-20T02:18:35;100453.22;;;6.61;100.00
12868;BME280;33517;49.866;8.320;2023-12-20T02:21:33;100447.47;;;6.47;100.00
12868;BME280;33517;49.866;8.320;2023-12-20T02:24:25;100445.13;;;6.54;100.00
12868;BME280;33517;49.866;8.320;2023-12-20T02:27:18;100441.41;;;6.57;100.00
12868;BME280;33517;49.866;8.320;2023-12-20T02:30:11;100430.13;;;6.56;100.00
12868;BME280;33517;49.866;8.320;2023-12-20T02:33:03;100426.16;;;6.52;100.00
12868;BME280;33517;49.866;8.320;2023-12-20T02:35:59;100434.69;;;6.44;100.00
12868;BME280;33517;49.866;8.320;2023-12-20T02:38:52;100439.91;;;6.44;100.00
12868;BME280;33517;49.866;8.320;2023-12-20T02:41:44;100446.78;;;6.45;100.00
12868;BME280;33517;49.866;8.320;2023-12-20T02:44:36;100452.44;;;6.41;100.00
12868;BME280;33517;49.866;8.320;2023-12-20T02:47:28;100440.06;;;6.43;100.00
12868;BME280;33517;49.866;8.320;2023-12-20T02:50:20;100445.13;;;6.54;100.00
12868;BME280;33517;49.866;8.320;2023-12-20T02:53:12;100430.94;;;6.57;100.00
12868;BME280;33517;49.866;8.320;2023-12-20T02:56:06;100451.16;;;6.64;100.00
12868;BME280;33517;49.866;8.320;2023-12-20T02:58:57;100448.00;;;6.61;100.00
12868;BME280;33517;49.866;8.320;2023-12-20T03:01:49;100437.97;;;6.46;100.00
12868;BME280;33517;49.866;8.320;2023-12-20T03:04:41;100429.59;;;6.43;100.00
12868;BME280;33517;49.866;8.320;2023-12-20T03:07:33;100437.97;;;6.56;100.00
12868;BME280;33517;49.866;8.320;2023-12-20T03:10:25;100448.69;;;6.63;100.00
12868;BME280;33517;49.866;8.320;2023-12-20T03:13:18;100459.44;;;6.60;100.00
12868;BME280;33517;49.866;8.320;2023-12-20T03:16:10;100462.88;;;6.60;100.00
12868;BME280;33517;49.866;8.320;2023-12-20T03:19:02;100475.66;;;6.63;100.00
12868;BME280;33517;49.866;8.320;2023-12-20T03:21:54;100474.13;;;6.61;100.00
12868;BME280;33517;49.866;8.320;2023-12-20T03:24:46;100466.72;;;6.56;100.00
12868;BME280;33517;49.866;8.320;2023-12-20T03:27:38;100465.59;;;6.49;100.00
12868;BME280;33517;49.866;8.320;2023-12-20T03:30:31;100468.50;;;6.56;100.00
12868;BME280;33517;49.866;8.320;2023-12-20T03:33:23;100468.81;;;6.62;100.00
12868;BME280;33517;49.866;8.320;2023-12-20T03:36:15;100457.91;;;6.57;100.00
12868;BME280;33517;49.866;8.320;2023-12-20T03:39:07;100469.34;;;6.56;100.00
12868;BME280;33517;49.866;8.320;2023-12-20T03:42:00;100466.84;;;6.54;100.00
12868;BME280;33517;49.866;8.320;2023-12-20T03:44:52;100473.88;;;6.54;100.00
12868;BME280;33517;49.866;8.320;2023-12-20T03:47:45;100471.53;;;6.51;100.00
12868;BME280;33517;49.866;8.320;2023-12-20T03:50:37;100472.50;;;6.50;100.00
12868;BME280;33517;49.866;8.320;2023-12-20T03:53:29;100470.16;;;6.57;100.00
12868;BME280;33517;49.866;8.320;2023-12-20T03:56:21;100475.38;;;6.57;100.00
12868;BME280;33517;49.866;8.320;2023-12-20T03:59:13;100478.69;;;6.49;100.00
12868;BME280;33517;49.866;8.320;2023-12-20T04:02:05;100480.59;;;6.66;100.00
12868;BME280;33517;49.866;8.320;2023-12-20T04:04:58;100484.34;;;6.73;100.00
12868;BME280;33517;49.866;8.320;2023-12-20T04:07:50;100488.72;;;6.82;100.00
12868;BME280;33517;49.866;8.320;2023-12-20T04:10:42;100478.94;;;6.84;100.00
12868;BME280;33517;49.866;8.320;2023-12-20T04:13:33;100487.47;;;6.86;100.00
12868;BME280;33517;49.866;8.320;2023-12-20T04:16:25;100492.44;;;6.89;100.00
12868;BME280;33517;49.866;8.320;2023-12-20T04:19:17;100496.41;;;6.93;100.00
12868;BME280;33517;49.866;8.320;2023-12-20T04:22:10;100504.94;;;6.95;100.00
12868;BME280;33517;49.866;8.320;2023-12-20T04:25:03;100504.56;;;6.90;100.00
12868;BME280;33517;49.866;8.320;2023-12-20T04:27:54;100506.47;;;6.88;100.00
12868;BME280;33517;49.866;8.320;2023-12-20T04:30:46;100518.03;;;6.76;100.00
12868;BME280;33517;49.866;8.320;2023-12-20T04:33:38;100519.72;;;6.77;100.00
12868;BME280;33517;49.866;8.320;2023-12-20T04:36:30;100523.69;;;6.91;100.00
12868;BME280;33517;49.866;8.320;2023-12-20T04:39:23;100537.56;;;6.91;100.00
12868;BME280;33517;49.866;8.320;2023-12-20T04:42:15;100531.25;;;6.75;100.00
12868;BME280;33517;49.866;8.320;2023-12-20T04:45:08;100536.88;;;6.51;100.00
12868;BME280;33517;49.866;8.320;2023-12-20T04:48:01;100538.53;;;6.33;100.00
12868;BME280;33517;49.866;8.320;2023-12-20T04:50:53;100543.28;;;6.18;100.00
12868;BME280;33517;49.866;8.320;2023-12-20T04:53:45;100540.81;;;6.17;100.00
12868;BME280;33517;49.866;8.320;2023-12-20T04:56:38;100546.56;;;6.11;100.00
12868;BME280;33517;49.866;8.320;2023-12-20T04:59:30;100562.09;;;6.03;100.00
12868;BME280;33517;49.866;8.320;2023-12-20T05:02:22;100562.22;;;6.11;100.00
12868;BME280;33517;49.866;8.320;2023-12-20T05:05:14;100555.53;;;6.18;100.00
12868;BME280;33517;49.866;8.320;2023-12-20T05:08:08;100570.00;;;6.22;100.00
12868;BME280;33517;49.866;8.320;2023-12-20T05:11:00;100587.31;;;6.23;100.00
12868;BME280;33517;49.866;8.320;2023-12-20T05:13:53;100588.63;;;6.08;100.00
12868;BME280;33517;49.866;8.320;2023-12-20T05:16:45;100593.13;;;5.96;100.00
12868;BME280;33517;49.866;8.320;2023-12-20T05:19:37;100581.59;;;5.78;100.00
12868;BME280;33517;49.866;8.320;2023-12-20T05:22:29;100587.75;;;5.68;100.00
12868;BME280;33517;49.866;8.320;2023-12-20T05:25:21;100585.31;;;5.55;100.00
12868;BME280;33517;49.866;8.320;2023-12-20T05:28:12;100587.88;;;5.45;100.00
12868;BME280;33517;49.866;8.320;2023-12-20T05:31:06;100587.31;;;5.42;100.00
12868;BME280;33517;49.866;8.320;2023-12-20T05:33:58;100594.00;;;5.35;100.00
12868;BME280;33517;49.866;8.320;2023-12-20T05:36:50;100595.00;;;5.23;100.00
12868;BME280;33517;49.866;8.320;2023-12-20T05:39:42;100596.03;;;5.11;100.00
12868;BME280;33517;49.866;8.320;2023-12-20T05:42:33;100592.13;;;5.05;100.00
12868;BME280;33517;49.866;8.320;2023-12-20T05:45:25;100596.84;;;5.11;100.00
12868;BME280;33517;49.866;8.320;2023-12-20T05:48:19;100602.03;;;5.22;100.00
12868;BME280;33517;49.866;8.320;2023-12-20T05:51:11;100599.91;;;5.37;100.00
12868;BME280;33517;49.866;8.320;2023-12-20T05:54:03;100591.31;;;5.46;100.00
12868;BME280;33517;49.866;8.320;2023-12-20T05:56:55;100594.81;;;5.35;100.00
12868;BME280;33517;49.866;8.320;2023-12-20T05:59:46;100597.94;;;5.29;100.00
12868;BME280;33517;49.866;8.320;2023-12-20T06:02:38;100596.81;;;5.22;100.00
12868;BME280;33517;49.866;8.320;2023-12-20T06:05:32;100594.94;;;5.13;100.00
12868;BME280;33517;49.866;8.320;2023-12-20T06:08:23;100605.84;;;5.07;100.00
12868;BME280;33517;49.866;8.320;2023-12-20T06:11:15;100606.47;;;5.00;100.00
12868;BME280;33517;49.866;8.320;2023-12-20T06:14:07;100589.97;;;4.90;100.00
12868;BME280;33517;49.866;8.320;2023-12-20T06:16:59;100603.84;;;4.79;100.00
12868;BME280;33517;49.866;8.320;2023-12-20T06:19:51;100618.94;;;4.64;100.00
12868;BME280;33517;49.866;8.320;2023-12-20T06:22:45;100616.38;;;4.53;100.00
12868;BME280;33517;49.866;8.320;2023-12-20T06:25:37;100626.91;;;4.41;100.00
12868;BME280;33517;49.866;8.320;2023-12-20T06:28:28;100625.97;;;4.31;100.00
12868;BME280;33517;49.866;8.320;2023-12-20T06:31:20;100632.16;;;4.19;100.00
12868;BME280;33517;49.866;8.320;2023-12-20T06:34:12;100632.13;;;4.08;100.00
12868;BME280;33517;49.866;8.320;2023-12-20T06:37:04;100636.28;;;3.99;100.00
12868;BME280;33517;49.866;8.320;2023-12-20T06:39:58;100631.88;;;3.89;100.00
12868;BME280;33517;49.866;8.320;2023-12-20T06:42:50;100629.06;;;3.81;100.00
12868;BME280;33517;49.866;8.320;2023-12-20T06:45:42;100632.00;;;3.76;100.00
12868;BME280;33517;49.866;8.320;2023-12-20T06:48:33;100628.31;;;3.67;100.00
12868;BME280;33517;49.866;8.320;2023-12-20T06:51:25;100646.66;;;3.66;100.00
12868;BME280;33517;49.866;8.320;2023-12-20T06:54:17;100650.34;;;3.63;100.00
12868;BME280;33517;49.866;8.320;2023-12-20T06:57:11;100658.13;;;3.63;100.00
12868;BME280;33517;49.866;8.320;2023-12-20T07:00:04;100649.50;;;3.63;100.00
12868;BME280;33517;49.866;8.320;2023-12-20T07:02:56;100647.72;;;3.63;100.00
12868;BME280;33517;49.866;8.320;2023-12-20T07:05:48;100648.06;;;3.59;100.00
12868;BME280;33517;49.866;8.320;2023-12-20T07:08:40;100636.34;;;3.53;100.00
12868;BME280;33517;49.866;8.320;2023-12-20T07:11:32;100651.25;;;3.51;100.00
12868;BME280;33517;49.866;8.320;2023-12-20T07:14:25;100649.22;;;3.55;100.00
12868;BME280;33517;49.866;8.320;2023-12-20T07:17:17;100643.31;;;3.53;100.00
12868;BME280;33517;49.866;8.320;2023-12-20T07:20:10;100647.69;;;3.52;100.00
12868;BME280;33517;49.866;8.320;2023-12-20T07:23:02;100660.94;;;3.60;100.00
12868;BME280;33517;49.866;8.320;2023-12-20T07:25:54;100670.91;;;3.66;100.00
12868;BME280;33517;49.866;8.320;2023-12-20T07:28:46;100662.53;;;3.85;100.00
12868;BME280;33517;49.866;8.320;2023-12-20T07:31:39;100667.91;;;4.06;100.00
12868;BME280;33517;49.866;8.320;2023-12-20T07:34:31;100670.38;;;4.29;100.00
12868;BME280;33517;49.866;8.320;2023-12-20T07:37:22;100671.31;;;4.50;100.00
12868;BME280;33517;49.866;8.320;2023-12-20T07:40:14;100674.50;;;4.65;100.00
12868;BME280;33517;49.866;8.320;2023-12-20T07:43:07;100671.91;;;4.65;100.00
12868;BME280;33517;49.866;8.320;2023-12-20T07:46:04;100671.75;;;4.55;100.00
12868;BME280;33517;49.866;8.320;2023-12-20T07:48:57;100666.44;;;4.46;100.00
12868;BME280;33517;49.866;8.320;2023-12-20T07:51:49;100669.66;;;4.38;100.00
12868;BME280;33517;49.866;8.320;2023-12-20T07:54:41;100662.44;;;4.31;100.00
12868;BME280;33517;49.866;8.320;2023-12-20T07:57:33;100670.97;;;4.33;100.00
12868;BME280;33517;49.866;8.320;2023-12-20T08:00:25;100672.50;;;4.35;100.00
12868;BME280;33517;49.866;8.320;2023-12-20T08:03:17;100671.09;;;4.53;100.00
12868;BME280;33517;49.866;8.320;2023-12-20T08:06:10;100678.25;;;4.83;100.00
12868;BME280;33517;49.866;8.320;2023-12-20T08:09:02;100675.59;;;4.94;100.00
12868;BME280;33517;49.866;8.320;2023-12-20T08:11:54;100678.78;;;5.09;99.28
12868;BME280;33517;49.866;8.320;2023-12-20T08:14:46;100685.50;;;5.22;99.18
12868;BME280;33517;49.866;8.320;2023-12-20T08:17:38;100683.41;;;5.37;98.81
12868;BME280;33517;49.866;8.320;2023-12-20T08:20:30;100679.09;;;5.47;98.25
12868;BME280;33517;49.866;8.320;2023-12-20T08:23:23;100685.66;;;5.62;97.48
12868;BME280;33517;49.866;8.320;2023-12-20T08:26:18;100685.53;;;5.63;95.58
12868;BME280;33517;49.866;8.320;2023-12-20T08:29:12;100691.78;;;5.72;96.04
12868;BME280;33517;49.866;8.320;2023-12-20T08:32:05;100684.41;;;6.28;96.43
12868;BME280;33517;49.866;8.320;2023-12-20T08:34:56;100691.38;;;6.48;93.37
12868;BME280;33517;49.866;8.320;2023-12-20T08:37:48;100697.44;;;6.48;92.90
12868;BME280;33517;49.866;8.320;2023-12-20T08:40:42;100685.00;;;6.71;92.76
12868;BME280;33517;49.866;8.320;2023-12-20T08:43:34;100690.16;;;7.01;93.16
12868;BME280;33517;49.866;8.320;2023-12-20T08:46:26;100685.06;;;7.19;92.50
12868;BME280;33517;49.866;8.320;2023-12-20T08:49:18;100691.25;;;7.08;91.47
12868;BME280;33517;49.866;8.320;2023-12-20T08:52:10;100692.06;;;6.99;90.21
12868;BME280;33517;49.866;8.320;2023-12-20T08:55:03;100695.06;;;6.85;89.71
12868;BME280;33517;49.866;8.320;2023-12-20T08:57:57;100697.03;;;6.93;91.47
12868;BME280;33517;49.866;8.320;2023-12-20T09:00:49;100691.50;;;6.96;89.63
12868;BME280;33517;49.866;8.320;2023-12-20T09:03:40;100695.22;;;7.03;88.99
12868;BME280;33517;49.866;8.320;2023-12-20T09:06:32;100686.84;;;7.09;89.27
12868;BME280;33517;49.866;8.320;2023-12-20T09:09:24;100681.09;;;7.24;88.57
12868;BME280;33517;49.866;8.320;2023-12-20T09:12:17;100684.94;;;7.39;87.80
12868;BME280;33517;49.866;8.320;2023-12-20T09:15:11;100680.22;;;7.62;86.78
12868;BME280;33517;49.866;8.320;2023-12-20T09:18:04;100687.69;;;7.67;85.26
12868;BME280;33517;49.866;8.320;2023-12-20T09:20:56;100690.56;;;7.73;85.84
12868;BME280;33517;49.866;8.320;2023-12-20T09:23:48;100686.75;;;9.40;80.70
12868;BME280;33517;49.866;8.320;2023-12-20T09:26:40;100688.88;;;10.57;78.16
12868;BME280;33517;49.866;8.320;2023-12-20T09:29:33;100697.13;;;10.02;75.39
12868;BME280;33517;49.866;8.320;2023-12-20T09:32:26;100691.63;;;9.96;74.01
12868;BME280;33517;49.866;8.320;2023-12-20T09:35:18;100686.38;;;9.00;76.59
12868;BME280;33517;49.866;8.320;2023-12-20T09:38:10;100692.34;;;8.48;80.28
12868;BME280;33517;49.866;8.320;2023-12-20T09:41:03;100683.69;;;8.82;80.47
12868;BME280;33517;49.866;8.320;2023-12-20T09:43:58;100682.78;;;8.47;80.33
12868;BME280;33517;49.866;8.320;2023-12-20T09:46:52;100683.56;;;8.29;81.77
12868;BME280;33517;49.866;8.320;2023-12-20T09:49:47;100682.84;;;8.37;83.44
12868;BME280;33517;49.866;8.320;2023-12-20T09:52:40;100680.78;;;8.21;81.51
12868;BME280;33517;49.866;8.320;2023-12-20T09:55:33;100681.91;;;8.19;83.30
12868;BME280;33517;49.866;8.320;2023-12-20T09:58:24;100685.16;;;8.50;83.24
12868;BME280;33517;49.866;8.320;2023-12-20T10:01:17;100681.44;;;8.70;81.04
12868;BME280;33517;49.866;8.320;2023-12-20T10:04:11;100675.75;;;8.74;80.69
12868;BME280;33517;49.866;8.320;2023-12-20T10:07:05;100692.81;;;9.05;79.46
12868;BME280;33517;49.866;8.320;2023-12-20T10:09:57;100690.66;;;9.36;79.05
12868;BME280;33517;49.866;8.320;2023-12-20T10:13:01;100685.19;;;9.90;76.50
12868;BME280;33517;49.866;8.320;2023-12-20T10:15:54;100681.19;;;11.37;73.28
12868;BME280;33517;49.866;8.320;2023-12-20T10:18:46;100669.03;;;12.86;69.19
12868;BME280;33517;49.866;8.320;2023-12-20T10:21:38;100668.94;;;12.25;66.22
12868;BME280;33517;49.866;8.320;2023-12-20T10:24:32;100668.38;;;11.74;67.00
12868;BME280;33517;49.866;8.320;2023-12-20T10:27:23;100674.59;;;11.33;68.97
12868;BME280;33517;49.866;8.320;2023-12-20T10:30:16;100664.00;;;10.85;70.84
12868;BME280;33517;49.866;8.320;2023-12-20T10:33:08;100666.09;;;10.40;70.91
12868;BME280;33517;49.866;8.320;2023-12-20T10:36:00;100654.16;;;9.94;73.19
12868;BME280;33517;49.866;8.320;2023-12-20T10:38:54;100649.41;;;9.97;73.57
12868;BME280;33517;49.866;8.320;2023-12-20T10:41:47;100635.50;;;9.79;74.05
12868;BME280;33517;49.866;8.320;2023-12-20T10:44:39;100641.75;;;9.78;73.86
12868;BME280;33517;49.866;8.320;2023-12-20T10:47:32;100632.59;;;11.07;71.59
12868;BME280;33517;49.866;8.320;2023-12-20T10:50:24;100637.22;;;11.30;68.43
12868;BME280;33517;49.866;8.320;2023-12-20T10:53:18;100641.19;;;11.66;68.73
12868;BME280;33517;49.866;8.320;2023-12-20T10:56:15;100625.06;;;11.69;67.27
12868;BME280;33517;49.866;8.320;2023-12-20T10:59:10;100628.50;;;11.37;68.63
12868;BME280;33517;49.866;8.320;2023-12-20T11:02:03;100615.66;;;11.74;67.53
12868;BME280;33517;49.866;8.320;2023-12-20T11:05:06;100633.25;;;11.26;68.23
12868;BME280;33517;49.866;8.320;2023-12-20T11:08:03;100625.03;;;11.21;68.15
12868;BME280;33517;49.866;8.320;2023-12-20T11:11:02;100629.78;;;10.85;68.74
12868;BME280;33517;49.866;8.320;2023-12-20T11:13:58;100632.69;;;10.66;69.46
12868;BME280;33517;49.866;8.320;2023-12-20T11:17:07;100619.59;;;10.98;68.09
12868;BME280;33517;49.866;8.320;2023-12-20T11:20:07;100617.16;;;11.37;68.01
12868;BME280;33517;49.866;8.320;2023-12-20T11:23:01;100618.44;;;11.65;67.48
12868;BME280;33517;49.866;8.320;2023-12-20T11:25:55;100608.16;;;12.49;64.13
12868;BME280;33517;49.866;8.320;2023-12-20T11:28:49;100609.03;;;12.94;59.48
12868;BME280;33517;49.866;8.320;2023-12-20T11:31:41;100622.91;;;13.79;59.56
12868;BME280;33517;49.866;8.320;2023-12-20T11:34:35;100638.50;;;13.37;59.50
12868;BME280;33517;49.866;8.320;2023-12-20T11:37:31;100629.22;;;12.87;60.79
12868;BME280;33517;49.866;8.320;2023-12-20T11:40:23;100631.28;;;12.39;61.78
12868;BME280;33517;49.866;8.320;2023-12-20T11:43:30;100628.19;;;11.48;62.14
12868;BME280;33517;49.866;8.320;2023-12-20T11:46:22;100618.56;;;10.83;65.05
12868;BME280;33517;49.866;8.320;2023-12-20T11:49:14;100627.28;;;10.34;67.55
12868;BME280;33517;49.866;8.320;2023-12-20T11:52:07;100631.56;;;10.09;68.34
12868;BME280;33517;49.866;8.320;2023-12-20T11:54:59;100639.69;;;10.15;69.46
12868;BME280;33517;49.866;8.320;2023-12-20T11:57:51;100633.75;;;9.88;68.97
12868;BME280;33517;49.866;8.320;2023-12-20T12:00:44;100642.25;;;9.82;69.81
12868;BME280;33517;49.866;8.320;2023-12-20T12:03:36;100631.41;;;9.59;70.54
12868;BME280;33517;49.866;8.320;2023-12-20T12:06:28;100628.91;;;9.32;70.70
12868;BME280;33517;49.866;8.320;2023-12-20T12:09:21;100633.50;;;9.12;72.38
12868;BME280;33517;49.866;8.320;2023-12-20T12:12:13;100633.88;;;9.00;70.68
12868;BME280;33517;49.866;8.320;2023-12-20T12:15:06;100619.69;;;8.93;72.26
12868;BME280;33517;49.866;8.320;2023-12-20T12:17:59;100625.25;;;9.07;72.87
12868;BME280;33517;49.866;8.320;2023-12-20T12:21:00;100604.25;;;9.07;72.17
12868;BME280;33517;49.866;8.320;2023-12-20T12:23:52;100602.38;;;9.00;73.21
12868;BME280;33517;49.866;8.320;2023-12-20T12:26:50;100592.94;;;9.07;73.28
12868;BME280;33517;49.866;8.320;2023-12-20T12:30:01;100570.88;;;9.00;73.66
12868;BME280;33517;49.866;8.320;2023-12-20T12:32:56;100570.38;;;9.65;72.03
12868;BME280;33517;49.866;8.320;2023-12-20T12:35:48;100578.09;;;10.18;71.00
12868;BME280;33517;49.866;8.320;2023-12-20T12:38:41;100569.38;;;10.17;68.89
12868;BME280;33517;49.866;8.320;2023-12-20T12:41:33;100572.66;;;9.94;70.04
12868;BME280;33517;49.866;8.320;2023-12-20T12:44:26;100564.13;;;10.17;69.75
12868;BME280;33517;49.866;8.320;2023-12-20T12:47:18;100567.09;;;11.12;68.53
12868;BME280;33517;49.866;8.320;2023-12-20T12:50:10;100548.13;;;12.12;64.34
12868;BME280;33517;49.866;8.320;2023-12-20T12:53:02;100541.94;;;12.28;61.43
12868;BME280;33517;49.866;8.320;2023-12-20T12:55:54;100553.06;;;12.76;61.91
12868;BME280;33517;49.866;8.320;2023-12-20T12:58:46;100542.53;;;12.68;58.76
12868;BME280;33517;49.866;8.320;2023-12-20T13:01:39;100528.97;;;12.71;60.56
12868;BME280;33517;49.866;8.320;2023-12-20T13:04:31;100519.28;;;12.86;59.31
12868;BME280;33517;49.866;8.320;2023-12-20T13:07:23;100512.47;;;12.92;59.68
12868;BME280;33517;49.866;8.320;2023-12-20T13:10:15;100501.25;;;12.90;60.08
12868;BME280;33517;49.866;8.320;2023-12-20T13:13:07;100493.91;;;12.63;60.52
12868;BME280;33517;49.866;8.320;2023-12-20T13:15:59;100494.09;;;12.00;61.26
12868;BME280;33517;49.866;8.320;2023-12-20T13:18:52;100489.97;;;11.51;63.13
12868;BME280;33517;49.866;8.320;2023-12-20T13:21:44;100473.59;;;11.17;66.22
12868;BME280;33517;49.866;8.320;2023-12-20T13:24:36;100480.19;;;11.04;66.88
12868;BME280;33517;49.866;8.320;2023-12-20T13:27:28;100475.25;;;11.18;65.95
12868;BME280;33517;49.866;8.320;2023-12-20T13:30:20;100472.72;;;11.40;65.90
12868;BME280;33517;49.866;8.320;2023-12-20T13:33:12;100474.50;;;11.56;65.25
12868;BME280;33517;49.866;8.320;2023-12-20T13:36:06;100472.50;;;11.66;67.10
12868;BME280;33517;49.866;8.320;2023-12-20T13:38:58;100478.97;;;11.39;64.29
12868;BME280;33517;49.866;8.320;2023-12-20T13:41:50;100469.34;;;10.91;66.99
12868;BME280;33517;49.866;8.320;2023-12-20T13:44:42;100480.84;;;10.50;68.69
12868;BME280;33517;49.866;8.320;2023-12-20T13:47:35;100478.50;;;10.23;70.32
12868;BME280;33517;49.866;8.320;2023-12-20T13:50:27;100480.69;;;10.02;72.39
12868;BME280;33517;49.866;8.320;2023-12-20T13:53:21;100477.13;;;10.11;72.83
12868;BME280;33517;49.866;8.320;2023-12-20T13:56:12;100481.84;;;9.99;73.04
12868;BME280;33517;49.866;8.320;2023-12-20T13:59:04;100479.66;;;9.87;72.54
12868;BME280;33517;49.866;8.320;2023-12-20T14:01:56;100484.88;;;9.79;73.83
12868;BME280;33517;49.866;8.320;2023-12-20T14:04:48;100464.22;;;9.50;74.49
12868;BME280;33517;49.866;8.320;2023-12-20T14:07:40;100472.06;;;9.42;74.64
12868;BME280;33517;49.866;8.320;2023-12-20T14:10:36;100480.31;;;9.21;76.64
12868;BME280;33517;49.866;8.320;2023-12-20T14:13:29;100474.75;;;9.24;76.90
12868;BME280;33517;49.866;8.320;2023-12-20T14:16:22;100472.72;;;9.10;76.93
12868;BME280;33517;49.866;8.320;2023-12-20T14:19:14;100468.81;;;9.14;77.53
12868;BME280;33517;49.866;8.320;2023-12-20T14:22:06;100483.66;;;9.06;76.03
12868;BME280;33517;49.866;8.320;2023-12-20T14:24:58;100487.41;;;9.03;77.79
12868;BME280;33517;49.866;8.320;2023-12-20T14:27:51;100479.28;;;8.89;78.69
12868;BME280;33517;49.866;8.320;2023-12-20T14:30:43;100475.63;;;8.82;77.85
12868;BME280;33517;49.866;8.320;2023-12-20T14:33:35;100488.00;;;8.72;79.85
12868;BME280;33517;49.866;8.320;2023-12-20T14:36:28;100482.31;;;8.59;78.53
12868;BME280;33517;49.866;8.320;2023-12-20T14:39:21;100475.34;;;8.50;79.75
12868;BME280;33517;49.866;8.320;2023-12-20T14:42:13;100464.78;;;8.59;81.17
12868;BME280;33517;49.866;8.320;2023-12-20T14:45:07;100479.59;;;8.51;79.87
12868;BME280;33517;49.866;8.320;2023-12-20T14:47:59;100480.88;;;8.47;80.16
12868;BME280;33517;49.866;8.320;2023-12-20T14:50:51;100478.47;;;8.35;78.83
12868;BME280;33517;49.866;8.320;2023-12-20T14:53:43;100467.25;;;8.43;80.61
12868;BME280;33517;49.866;8.320;2023-12-20T14:56:35;100465.06;;;8.38;80.08
12868;BME280;33517;49.866;8.320;2023-12-20T14:59:27;100475.19;;;8.33;80.84
12868;BME280;33517;49.866;8.320;2023-12-20T15:02:20;100469.03;;;8.25;80.77
12868;BME280;33517;49.866;8.320;2023-12-20T15:05:12;100468.78;;;8.18;81.82